createdAt,value
2019-03-20T00:01:21.365Z,10.30
2019-03-20T00:03:53.972Z,7.50
2019-03-20T00:06:25.032Z,10.10
2019-03-20T00:09:01.877Z,9.23
2019-03-20T00:11:32.716Z,8.70
2019-03-20T00:14:06.370Z,6.73
2019-03-20T00:16:37.101Z,12.40
2019-03-20T00:19:12.022Z,6.90
2019-03-20T00:21:54.466Z,14.43
2019-03-20T00:24:29.294Z,14.13
2019-03-20T00:27:01.530Z,7.63
2019-03-20T00:29:32.798Z,6.53
2019-03-20T00:32:04.451Z,14.53
2019-03-20T00:34:37.977Z,14.57
2019-03-20T00:37:08.944Z,8.90
2019-03-20T00:39:39.880Z,9.03
2019-03-20T00:42:18.752Z,8.87
2019-03-20T00:44:53.726Z,15.20
2019-03-20T00:47:28.883Z,9.90
2019-03-20T00:50:01.452Z,10.73
2019-03-20T00:52:34.479Z,10.50
2019-03-20T00:55:09.530Z,12.80
2019-03-20T00:57:40.530Z,9.87
2019-03-20T01:00:21.921Z,8.40
2019-03-20T01:02:52.951Z,7.90
2019-03-20T01:05:25.645Z,6.67
2019-03-20T01:08:01.386Z,11.40
2019-03-20T01:10:34.114Z,13.07
2019-03-20T01:13:07.765Z,21.60
2019-03-20T01:15:45.087Z,21.57
2019-03-20T01:18:18.720Z,5.83
2019-03-20T01:20:55.230Z,8.07
2019-03-20T01:23:27.288Z,8.80
2019-03-20T01:25:58.170Z,6.90
2019-03-20T01:28:29.330Z,6.60
2019-03-20T01:31:00.669Z,11.13
2019-03-20T01:33:33.880Z,11.47
2019-03-20T01:36:09.115Z,9.30
2019-03-20T01:38:41.860Z,7.90
2019-03-20T01:41:13.326Z,13.80
2019-03-20T01:43:48.309Z,10.70
2019-03-20T01:46:30.991Z,8.10
2019-03-20T01:49:02.033Z,5.20
2019-03-20T01:51:33.780Z,10.67
2019-03-20T01:54:06.804Z,7.07
2019-03-20T01:56:42.119Z,11.97
2019-03-20T01:59:13.098Z,6.80
2019-03-20T02:01:53.607Z,13.33
2019-03-20T02:04:25.275Z,13.03
2019-03-20T02:07:04.948Z,11.13
2019-03-20T02:09:38.942Z,10.13
2019-03-20T02:12:10.519Z,13.13
2019-03-20T02:14:43.916Z,9.90
2019-03-20T02:17:19.655Z,12.77
2019-03-20T02:19:55.559Z,9.33
2019-03-20T02:22:29.144Z,7.50
2019-03-20T02:25:02.830Z,7.70
2019-03-20T02:27:38.562Z,9.53
2019-03-20T02:30:14.214Z,7.10
2019-03-20T02:32:45.961Z,6.33
2019-03-20T02:35:20.566Z,8.10
2019-03-20T02:37:54.376Z,8.93
2019-03-20T02:40:26.953Z,9.13
2019-03-20T02:42:57.879Z,6.80
2019-03-20T02:45:28.828Z,10.90
2019-03-20T02:48:00.122Z,6.43
2019-03-20T02:50:36.018Z,8.10
2019-03-20T02:53:13.162Z,11.07
2019-03-20T02:55:50.413Z,8.67
2019-03-20T02:58:23.131Z,9.13
2019-03-20T03:00:53.760Z,7.47
2019-03-20T03:03:24.494Z,11.40
2019-03-20T03:06:06.682Z,7.17
2019-03-20T03:08:30.385Z,10.00
2019-03-20T03:11:03.772Z,8.90
2019-03-20T03:13:40.069Z,8.33
2019-03-20T03:16:12.342Z,9.40
2019-03-20T03:18:43.054Z,12.50
2019-03-20T03:21:13.835Z,7.23
2019-03-20T03:23:56.563Z,10.50
2019-03-20T03:26:28.610Z,6.53
2019-03-20T03:29:01.345Z,7.47
2019-03-20T03:31:32.191Z,19.67
2019-03-20T03:34:04.921Z,8.57
2019-03-20T03:36:35.992Z,18.60
2019-03-20T03:39:09.520Z,9.23
2019-03-20T03:41:47.909Z,8.43
2019-03-20T03:44:27.830Z,9.90
2019-03-20T03:47:02.704Z,16.10
2019-03-20T03:49:33.735Z,9.73
2019-03-20T03:52:08.361Z,11.57
2019-03-20T03:54:37.301Z,9.80
2019-03-20T03:57:09.685Z,7.60
2019-03-20T03:59:43.506Z,13.17
2019-03-20T04:02:14.271Z,9.80
2019-03-20T04:04:44.996Z,11.87
2019-03-20T04:07:17.663Z,15.30
2019-03-20T04:09:54.750Z,11.70
2019-03-20T04:12:25.510Z,11.20
2019-03-20T04:14:56.287Z,8.17
2019-03-20T04:17:27.853Z,8.70
2019-03-20T04:20:00.986Z,7.90
2019-03-20T04:22:32.528Z,7.27
2019-03-20T04:25:03.864Z,6.90
2019-03-20T04:27:39.951Z,12.40
2019-03-20T04:30:11.384Z,10.33
2019-03-20T04:32:50.187Z,8.03
2019-03-20T04:35:23.937Z,10.00
2019-03-20T04:37:56.316Z,7.70
2019-03-20T04:40:27.243Z,9.13
2019-03-20T04:42:57.993Z,15.67
2019-03-20T04:45:28.751Z,11.73
2019-03-20T04:47:59.501Z,11.70
2019-03-20T04:50:33.094Z,12.80
2019-03-20T04:53:03.996Z,10.57
2019-03-20T04:55:34.868Z,11.50
2019-03-20T04:58:05.502Z,10.27
2019-03-20T05:00:36.242Z,17.23
2019-03-20T05:03:07.211Z,10.97
2019-03-20T05:05:41.401Z,12.37
2019-03-20T05:08:12.043Z,11.33
2019-03-20T05:10:42.697Z,12.00
2019-03-20T05:13:13.516Z,13.40
2019-03-20T05:15:44.346Z,6.73
2019-03-20T05:18:17.456Z,12.13
2019-03-20T05:20:51.238Z,8.87
2019-03-20T05:23:22.112Z,15.67
2019-03-20T05:25:54.115Z,19.67
2019-03-20T05:28:26.916Z,9.90
2019-03-20T05:30:58.532Z,12.77
2019-03-20T05:33:32.350Z,11.20
2019-03-20T05:36:03.157Z,12.23
2019-03-20T05:38:33.894Z,13.30
2019-03-20T05:41:04.799Z,9.70
2019-03-20T05:43:35.641Z,11.47
2019-03-20T05:46:06.695Z,10.83
2019-03-20T05:48:40.664Z,9.37
2019-03-20T05:51:12.779Z,14.93
2019-03-20T05:53:46.573Z,16.83
2019-03-20T05:56:18.489Z,10.43
2019-03-20T05:58:57.033Z,11.50
2019-03-20T06:01:32.648Z,10.37
2019-03-20T06:04:11.876Z,14.47
2019-03-20T06:06:43.097Z,16.03
2019-03-20T06:09:17.151Z,13.10
2019-03-20T06:11:48.086Z,19.90
2019-03-20T06:14:24.635Z,20.57
2019-03-20T06:17:01.594Z,10.10
2019-03-20T06:19:34.408Z,11.50
2019-03-20T06:22:10.903Z,10.20
2019-03-20T06:24:47.402Z,14.80
2019-03-20T06:27:23.595Z,15.20
2019-03-20T06:30:02.210Z,18.30
2019-03-20T06:32:36.854Z,11.73
2019-03-20T06:35:08.699Z,12.87
2019-03-20T06:37:41.785Z,18.10
2019-03-20T06:40:12.814Z,13.60
2019-03-20T06:42:43.849Z,15.90
2019-03-20T06:45:22.216Z,14.30
2019-03-20T06:47:53.308Z,15.33
2019-03-20T06:56:35.857Z,16.70
2019-03-20T07:00:12.542Z,14.77
2019-03-20T07:02:55.937Z,15.67
2019-03-20T07:05:58.880Z,16.73
2019-03-20T07:08:42.084Z,13.43
2019-03-20T07:11:50.932Z,14.47
2019-03-20T07:17:31.747Z,20.73
2019-03-20T07:20:21.383Z,21.30
2019-03-20T07:22:54.144Z,19.40
2019-03-20T07:25:25.379Z,16.23
2019-03-20T07:28:00.722Z,14.30
2019-03-20T07:30:31.532Z,12.87
2019-03-20T07:33:02.508Z,18.30
2019-03-20T07:35:33.964Z,17.63
2019-03-20T07:38:11.481Z,19.47
2019-03-20T07:40:44.337Z,16.60
2019-03-20T07:43:16.949Z,17.00
2019-03-20T07:45:56.962Z,13.17
2019-03-20T07:48:31.323Z,15.17
2019-03-20T07:51:04.304Z,16.20
2019-03-20T07:53:37.037Z,20.00
2019-03-20T07:56:08.432Z,15.37
2019-03-20T07:58:39.711Z,21.47
2019-03-20T08:01:20.328Z,20.32
2019-03-20T08:03:52.020Z,21.43
2019-03-20T08:06:25.515Z,17.80
2019-03-20T08:22:03.920Z,21.20
2019-03-20T08:24:45.174Z,27.60
2019-03-20T08:27:21.328Z,28.57
2019-03-20T08:59:34.139Z,18.23
2019-03-20T09:02:16.084Z,12.63
2019-03-20T09:05:03.735Z,16.87
2019-03-20T09:07:54.942Z,13.87
2019-03-20T09:10:45.050Z,12.37
2019-03-20T09:13:26.222Z,13.90
2019-03-20T09:16:10.872Z,14.00
2019-03-20T09:18:54.243Z,13.50
2019-03-20T09:22:05.297Z,10.07
2019-03-20T09:24:43.191Z,12.17
2019-03-20T09:27:50.719Z,13.33
2019-03-20T09:30:53.655Z,14.93
2019-03-20T09:33:33.376Z,14.37
2019-03-20T09:36:42.998Z,13.00
2019-03-20T09:39:30.316Z,11.67
2019-03-20T09:42:28.144Z,12.83
2019-03-20T09:45:20.151Z,13.63
2019-03-20T09:52:36.281Z,11.57
2019-03-20T09:55:02.867Z,13.97
2019-03-20T09:58:16.135Z,14.80
2019-03-20T10:01:06.653Z,13.50
2019-03-20T10:04:43.544Z,13.63
2019-03-20T10:08:08.689Z,13.50
2019-03-20T10:11:19.267Z,12.50
2019-03-20T10:14:14.001Z,12.35
2019-03-20T10:17:18.550Z,13.43
2019-03-20T10:20:42.862Z,12.43
2019-03-20T10:23:49.606Z,13.98
2019-03-20T10:27:06.225Z,13.62
2019-03-20T10:30:10.491Z,11.55
2019-03-20T10:34:39.006Z,13.53
2019-03-20T10:45:24.778Z,11.95
2019-03-20T10:49:16.087Z,13.43
2019-03-20T10:53:07.944Z,14.50
2019-03-20T11:07:10.536Z,12.93
2019-03-20T11:17:20.819Z,17.20
2019-03-20T11:20:02.992Z,16.40
2019-03-20T11:23:35.430Z,10.13
2019-03-20T11:31:11.586Z,11.60
2019-03-20T11:34:59.304Z,13.23
2019-03-20T11:38:08.446Z,15.80
2019-03-20T12:00:31.255Z,15.83
2019-03-20T12:03:28.195Z,11.33
2019-03-20T12:06:20.184Z,10.37
2019-03-20T12:17:22.680Z,11.70
2019-03-20T12:20:48.241Z,10.77
2019-03-20T12:24:05.750Z,12.90
2019-03-20T12:30:38.356Z,18.90
2019-03-20T12:34:16.421Z,11.60
2019-03-20T12:37:31.408Z,17.37
2019-03-20T12:40:54.044Z,13.87
2019-03-20T12:44:08.460Z,10.13
2019-03-20T12:46:52.292Z,13.90
2019-03-20T12:49:32.836Z,14.83
2019-03-20T12:52:45.453Z,9.70
2019-03-20T12:56:05.976Z,12.90
2019-03-20T12:59:32.803Z,10.33
2019-03-20T13:02:54.999Z,18.13
2019-03-20T13:06:08.541Z,13.30
2019-03-20T13:09:18.626Z,11.20
2019-03-20T13:11:59.485Z,13.87
2019-03-20T13:14:46.379Z,15.83
2019-03-20T13:21:47.638Z,13.83
2019-03-20T13:24:55.575Z,16.77
2019-03-20T13:27:40.692Z,11.17
2019-03-20T13:30:27.026Z,17.10
2019-03-20T13:33:26.064Z,11.97
2019-03-20T13:36:46.945Z,17.97
2019-03-20T13:40:41.001Z,25.53
2019-03-20T13:47:36.658Z,16.50
2019-03-20T13:50:57.937Z,15.10
2019-03-20T13:54:05.478Z,15.70
2019-03-20T13:57:07.720Z,13.33
2019-03-20T14:10:49.485Z,12.20
2019-03-20T14:13:19.994Z,15.70
2019-03-20T14:15:58.238Z,12.67
2019-03-20T14:29:15.092Z,11.13
2019-03-20T14:32:13.798Z,13.33
2019-03-20T14:35:21.704Z,13.03
2019-03-20T14:38:07.062Z,13.13
2019-03-20T14:41:21.498Z,10.43
2019-03-20T14:44:22.381Z,10.37
2019-03-20T14:47:17.031Z,11.33
2019-03-20T14:51:15.360Z,12.37
2019-03-20T14:54:35.235Z,9.07
2019-03-20T14:57:57.515Z,11.30
2019-03-20T15:01:30.478Z,11.90
2019-03-20T15:04:42.005Z,11.20
2019-03-20T15:07:31.681Z,9.73
2019-03-20T15:10:26.983Z,8.27
2019-03-20T15:12:59.842Z,11.53
2019-03-20T15:16:16.802Z,7.47
2019-03-20T15:19:14.232Z,11.40
2019-03-20T15:22:06.122Z,10.77
2019-03-20T15:25:24.216Z,9.17
2019-03-20T15:28:51.372Z,13.33
2019-03-20T15:32:12.081Z,10.73
2019-03-20T15:38:41.735Z,6.30
2019-03-20T15:44:27.931Z,9.63
2019-03-20T15:47:38.785Z,13.50
2019-03-20T15:50:22.594Z,9.73
2019-03-20T15:54:25.870Z,10.07
2019-03-20T16:01:35.255Z,8.00
2019-03-20T16:05:01.497Z,8.03
2019-03-20T16:08:21.537Z,10.00
2019-03-20T16:11:22.542Z,14.37
2019-03-20T16:14:14.485Z,9.17
2019-03-20T16:17:01.357Z,12.97
2019-03-20T16:19:41.457Z,7.70
2019-03-20T16:23:06.911Z,8.07
2019-03-20T16:34:50.574Z,10.03
2019-03-20T16:37:53.856Z,10.70
2019-03-20T16:45:51.063Z,9.60
2019-03-20T17:02:43.557Z,13.20
2019-03-20T17:04:54.233Z,16.60
2019-03-20T17:11:54.807Z,12.17
2019-03-20T17:18:32.352Z,19.27
2019-03-20T17:22:18.323Z,15.10
2019-03-20T17:25:48.933Z,14.40
2019-03-20T17:28:40.933Z,14.80
2019-03-20T17:31:50.512Z,22.33
2019-03-20T17:34:36.430Z,10.43
2019-03-20T17:39:41.715Z,8.90
2019-03-20T17:45:28.928Z,10.80
2019-03-20T17:48:03.827Z,11.30
2019-03-20T17:51:16.452Z,15.30
2019-03-20T17:54:11.200Z,20.62
2019-03-20T17:56:52.702Z,12.88
2019-03-20T17:59:24.392Z,15.87
2019-03-20T18:02:00.242Z,14.25
2019-03-20T18:04:43.269Z,13.18
2019-03-20T18:07:24.896Z,16.47
2019-03-20T18:10:04.854Z,12.33
2019-03-20T18:12:58.023Z,15.50
2019-03-20T18:15:40.230Z,13.43
2019-03-20T18:22:18.615Z,12.37
2019-03-20T18:25:14.935Z,13.72
2019-03-20T18:27:59.316Z,15.50
2019-03-20T18:30:36.671Z,19.45
2019-03-20T18:37:49.317Z,14.30
2019-03-20T18:41:57.177Z,13.53
2019-03-20T18:45:19.861Z,11.30
2019-03-20T18:49:21.131Z,14.00
2019-03-20T18:52:14.675Z,11.40
2019-03-20T18:55:27.933Z,12.03
2019-03-20T18:58:11.163Z,20.70
2019-03-20T19:01:48.585Z,17.00
2019-03-20T19:04:42.885Z,15.45
2019-03-20T19:11:29.824Z,13.20
2019-03-20T19:14:20.400Z,14.63
2019-03-20T19:17:17.904Z,15.35
2019-03-20T19:20:11.405Z,16.02
2019-03-20T19:23:26.911Z,17.40
2019-03-20T19:26:31.287Z,15.28
2019-03-20T19:29:17.064Z,19.90
2019-03-20T19:31:52.644Z,17.80
2019-03-20T19:34:54.851Z,16.17
2019-03-20T19:37:49.866Z,20.50
2019-03-20T19:40:25.391Z,19.10
2019-03-20T19:44:08.751Z,19.90
2019-03-20T19:47:23.303Z,19.45
2019-03-20T19:50:52.539Z,20.17
2019-03-20T19:54:00.682Z,17.05
2019-03-20T20:03:56.399Z,22.95
2019-03-20T20:04:39.016Z,17.25
2019-03-20T20:10:41.146Z,18.42
2019-03-20T20:13:41.398Z,21.70
2019-03-20T20:20:03.450Z,17.75
2019-03-20T20:25:59.671Z,20.48
2019-03-20T20:28:35.826Z,20.97
2019-03-20T20:31:25.904Z,19.12
2019-03-20T20:33:53.102Z,25.62
2019-03-20T20:36:27.372Z,21.95
2019-03-20T20:38:58.740Z,40.90
2019-03-20T20:41:33.686Z,20.07
2019-03-20T20:44:06.817Z,19.80
2019-03-20T20:46:46.731Z,19.37
2019-03-20T20:49:28.639Z,23.40
2019-03-20T20:52:30.804Z,20.65
2019-03-20T20:55:16.365Z,17.27
2019-03-20T20:58:05.031Z,22.90
2019-03-20T21:00:40.855Z,21.97
2019-03-20T21:03:13.075Z,25.52
2019-03-20T21:06:04.152Z,25.23
2019-03-20T21:08:42.824Z,22.80
2019-03-20T21:11:44.597Z,22.93
2019-03-20T21:13:55.716Z,21.52
2019-03-20T21:16:29.909Z,23.77
2019-03-20T21:19:36.354Z,25.85
2019-03-20T21:23:03.462Z,24.43
2019-03-20T21:25:50.681Z,21.48
2019-03-20T21:28:58.566Z,25.60
2019-03-20T21:31:58.713Z,24.65
2019-03-20T21:35:14.249Z,26.07
2019-03-20T21:38:12.947Z,24.23
2019-03-20T21:41:36.158Z,22.67
2019-03-20T21:48:25.755Z,25.23
2019-03-20T21:48:34.497Z,25.88
2019-03-20T21:51:23.117Z,24.82
2019-03-20T21:54:39.842Z,27.63
2019-03-20T21:58:01.345Z,28.13
2019-03-20T22:01:20.206Z,30.48
2019-03-20T22:03:54.901Z,26.80
2019-03-20T22:07:31.186Z,27.82
2019-03-20T22:10:42.634Z,30.68
2019-03-20T22:13:45.024Z,26.93
2019-03-20T22:17:14.020Z,31.45
2019-03-20T22:20:03.224Z,36.05
2019-03-20T22:23:08.772Z,33.28
2019-03-20T22:26:11.209Z,33.28
2019-03-20T22:29:03.090Z,36.35
2019-03-20T22:31:43.649Z,35.35
2019-03-20T22:34:51.105Z,32.90
2019-03-20T22:37:25.524Z,38.17
2019-03-20T22:40:46.742Z,36.40
2019-03-20T22:43:41.584Z,37.88
2019-03-20T22:46:48.258Z,34.78
2019-03-20T22:49:56.725Z,36.50
2019-03-20T22:52:51.720Z,35.95
2019-03-20T22:55:49.223Z,39.90
2019-03-20T22:58:46.696Z,34.00
2019-03-20T23:01:42.632Z,39.00
2019-03-20T23:04:36.465Z,35.30
2019-03-20T23:07:07.676Z,37.50
2019-03-20T23:09:39.890Z,37.08
2019-03-20T23:12:17.995Z,39.80
2019-03-20T23:14:50.744Z,40.23
2019-03-20T23:17:23.889Z,36.38
2019-03-20T23:20:02.002Z,41.18
2019-03-20T23:22:44.343Z,39.10
2019-03-20T23:25:21.910Z,39.63
2019-03-20T23:28:01.945Z,39.73
2019-03-20T23:30:40.178Z,38.95
2019-03-20T23:33:20.335Z,39.63
2019-03-20T23:36:02.224Z,36.67
2019-03-20T23:38:39.310Z,38.15
2019-03-20T23:41:15.608Z,41.48
2019-03-20T23:43:57.235Z,35.92
2019-03-20T23:46:41.580Z,42.25
2019-03-20T23:49:19.877Z,42.53
2019-03-20T23:52:00.177Z,39.55
2019-03-20T23:54:44.068Z,41.98
2019-03-20T23:57:19.357Z,42.78
